createdAt,value
2018-12-20T00:01:29.182Z,25.57
2018-12-20T00:03:58.162Z,22.53
2018-12-20T00:06:26.989Z,25.43
2018-12-20T00:08:55.861Z,24.77
2018-12-20T00:11:24.675Z,24.10
2018-12-20T00:13:53.499Z,23.33
2018-12-20T00:16:22.534Z,19.70
2018-12-20T00:18:51.461Z,21.03
2018-12-20T00:21:26.477Z,24.03
2018-12-20T00:23:55.421Z,22.30
2018-12-20T00:26:24.273Z,22.53
2018-12-20T00:28:53.088Z,23.93
2018-12-20T00:31:21.956Z,23.87
2018-12-20T00:33:50.879Z,24.77
2018-12-20T00:36:19.756Z,27.17
2018-12-20T00:38:48.682Z,20.60
2018-12-20T00:41:17.520Z,25.63
2018-12-20T00:43:47.686Z,24.50
2018-12-20T00:46:16.623Z,22.80
2018-12-20T00:48:45.590Z,29.40
2018-12-20T00:51:14.546Z,22.00
2018-12-20T00:53:43.418Z,24.63
2018-12-20T00:56:12.251Z,23.03
2018-12-20T00:58:42.403Z,26.90
2018-12-20T01:01:11.310Z,24.80
2018-12-20T01:03:40.324Z,21.97
2018-12-20T01:06:09.233Z,20.33
2018-12-20T01:08:38.074Z,25.37
2018-12-20T01:11:07.633Z,19.50
2018-12-20T01:13:36.580Z,23.87
2018-12-20T01:16:05.639Z,23.73
2018-12-20T01:18:34.603Z,22.93
2018-12-20T01:21:03.586Z,21.30
2018-12-20T01:23:32.451Z,24.30
2018-12-20T01:26:01.262Z,26.87
2018-12-20T01:28:30.190Z,21.97
2018-12-20T01:30:59.227Z,23.20
2018-12-20T01:33:28.287Z,22.43
2018-12-20T01:35:57.278Z,23.13
2018-12-20T01:38:26.273Z,21.33
2018-12-20T01:40:55.620Z,23.93
2018-12-20T01:43:24.649Z,24.10
2018-12-20T01:45:53.631Z,24.13
2018-12-20T01:48:22.597Z,19.97
2018-12-20T01:50:51.709Z,21.77
2018-12-20T01:53:20.573Z,22.33
2018-12-20T01:55:49.481Z,20.10
2018-12-20T01:58:18.491Z,23.97
2018-12-20T02:00:47.479Z,20.80
2018-12-20T02:03:16.606Z,19.77
2018-12-20T02:05:45.532Z,22.30
2018-12-20T02:08:14.361Z,21.00
2018-12-20T02:10:43.183Z,23.63
2018-12-20T02:13:12.174Z,21.70
2018-12-20T02:15:41.344Z,23.73
2018-12-20T02:18:10.612Z,25.87
2018-12-20T02:20:39.573Z,29.93
2018-12-20T02:23:08.594Z,26.27
2018-12-20T02:25:37.588Z,25.20
2018-12-20T02:28:06.499Z,25.90
2018-12-20T02:30:35.683Z,26.07
2018-12-20T02:33:04.917Z,21.60
2018-12-20T02:35:33.886Z,24.57
2018-12-20T02:38:02.916Z,21.90
2018-12-20T02:40:31.909Z,24.40
2018-12-20T02:43:01.013Z,23.40
2018-12-20T02:45:30.187Z,24.80
2018-12-20T02:47:59.397Z,23.30
2018-12-20T02:50:28.551Z,24.50
2018-12-20T02:52:57.653Z,25.32
2018-12-20T02:55:26.776Z,20.80
2018-12-20T02:57:55.943Z,24.00
2018-12-20T03:00:25.025Z,22.50
2018-12-20T03:02:53.910Z,26.30
2018-12-20T03:05:23.242Z,23.07
2018-12-20T03:07:52.392Z,25.10
2018-12-20T03:10:21.226Z,22.67
2018-12-20T03:12:50.258Z,26.17
2018-12-20T03:15:20.110Z,22.40
2018-12-20T03:17:49.833Z,25.77
2018-12-20T03:20:18.890Z,25.83
2018-12-20T03:22:47.835Z,28.43
2018-12-20T03:25:16.734Z,26.47
2018-12-20T03:27:45.635Z,29.23
2018-12-20T03:30:14.578Z,27.73
2018-12-20T03:32:43.766Z,23.63
2018-12-20T03:35:14.309Z,24.50
2018-12-20T03:37:43.942Z,23.27
2018-12-20T03:40:13.185Z,28.20
2018-12-20T03:42:42.305Z,27.17
2018-12-20T03:45:13.155Z,26.37
2018-12-20T03:47:42.485Z,23.60
2018-12-20T03:50:11.924Z,25.77
2018-12-20T03:52:41.111Z,25.33
2018-12-20T03:55:09.959Z,24.97
2018-12-20T03:57:38.999Z,27.10
2018-12-20T04:00:08.409Z,23.17
2018-12-20T04:02:37.614Z,22.07
2018-12-20T04:05:07.018Z,26.60
2018-12-20T04:07:36.190Z,24.77
2018-12-20T04:10:05.582Z,24.40
2018-12-20T04:12:34.753Z,29.03
2018-12-20T04:15:03.953Z,28.37
2018-12-20T04:17:33.047Z,24.47
2018-12-20T04:20:01.975Z,27.70
2018-12-20T04:22:30.965Z,24.77
2018-12-20T04:25:00.267Z,26.73
2018-12-20T04:27:29.155Z,27.87
2018-12-20T04:29:58.051Z,27.63
2018-12-20T04:32:27.004Z,25.63
2018-12-20T04:34:56.210Z,25.13
2018-12-20T04:37:25.076Z,25.63
2018-12-20T04:39:54.069Z,29.90
2018-12-20T04:42:23.318Z,23.73
2018-12-20T04:44:52.603Z,27.53
2018-12-20T04:47:21.894Z,31.57
2018-12-20T04:49:50.844Z,27.53
2018-12-20T04:52:19.730Z,27.27
2018-12-20T04:54:48.898Z,28.73
2018-12-20T04:57:18.057Z,26.70
2018-12-20T04:59:47.205Z,24.83
2018-12-20T05:02:16.402Z,25.13
2018-12-20T05:04:45.481Z,30.33
2018-12-20T05:07:14.328Z,32.83
2018-12-20T05:09:43.158Z,26.90
2018-12-20T05:12:12.034Z,30.00
2018-12-20T05:14:40.956Z,24.97
2018-12-20T05:17:09.771Z,28.83
2018-12-20T05:19:38.641Z,29.20
2018-12-20T05:22:07.476Z,30.80
2018-12-20T05:24:36.491Z,24.87
2018-12-20T05:27:05.444Z,29.43
2018-12-20T05:29:34.632Z,25.40
2018-12-20T05:32:03.653Z,28.07
2018-12-20T05:34:32.520Z,27.07
2018-12-20T05:37:01.583Z,25.67
2018-12-20T05:39:30.747Z,28.53
2018-12-20T05:41:59.663Z,25.87
2018-12-20T05:44:28.757Z,24.30
2018-12-20T05:46:58.001Z,26.87
2018-12-20T05:49:26.825Z,31.33
2018-12-20T05:51:55.644Z,25.50
2018-12-20T05:54:24.507Z,26.93
2018-12-20T05:56:53.675Z,27.83
2018-12-20T05:59:22.745Z,29.03
2018-12-20T06:01:51.608Z,29.53
2018-12-20T06:04:20.560Z,33.83
2018-12-20T06:06:49.630Z,38.90
2018-12-20T06:09:18.481Z,41.83
2018-12-20T06:11:47.275Z,42.40
2018-12-20T06:14:16.374Z,32.60
2018-12-20T06:16:45.850Z,35.87
2018-12-20T06:19:14.730Z,32.13
2018-12-20T06:21:43.569Z,35.87
2018-12-20T06:24:12.457Z,20.43
2018-12-20T06:26:41.352Z,30.60
2018-12-20T06:29:10.133Z,33.93
2018-12-20T06:31:38.954Z,29.87
2018-12-20T06:34:07.808Z,33.90
2018-12-20T06:36:36.626Z,30.37
2018-12-20T06:39:08.569Z,22.83
2018-12-20T06:41:37.432Z,30.87
2018-12-20T06:44:07.262Z,25.03
2018-12-20T06:46:38.828Z,24.87
2018-12-20T06:49:07.644Z,29.27
2018-12-20T06:51:36.576Z,28.83
2018-12-20T06:54:05.391Z,26.50
2018-12-20T06:56:34.221Z,28.90
2018-12-20T06:59:03.061Z,29.93
2018-12-20T07:01:31.856Z,27.77
2018-12-20T07:04:00.691Z,25.27
2018-12-20T07:06:29.547Z,25.73
2018-12-20T07:08:58.353Z,27.25
2018-12-20T07:11:27.170Z,28.53
2018-12-20T07:13:56.004Z,26.93
2018-12-20T07:16:29.307Z,34.10
2018-12-20T07:18:55.716Z,29.63
2018-12-20T07:21:24.585Z,32.13
2018-12-20T07:23:53.381Z,35.20
2018-12-20T07:26:22.189Z,31.50
2018-12-20T07:28:51.042Z,36.93
2018-12-20T07:31:19.841Z,28.07
2018-12-20T07:33:48.628Z,28.43
2018-12-20T07:36:17.485Z,26.63
2018-12-20T07:38:46.308Z,31.53
2018-12-20T07:41:15.748Z,29.00
2018-12-20T07:43:44.555Z,29.40
2018-12-20T07:46:13.582Z,29.27
2018-12-20T07:48:42.440Z,28.87
2018-12-20T07:51:11.261Z,29.57
2018-12-20T07:53:40.104Z,32.13
2018-12-20T07:56:09.187Z,30.40
2018-12-20T07:58:38.060Z,29.20
2018-12-20T08:01:06.906Z,31.93
2018-12-20T08:03:35.884Z,33.27
2018-12-20T08:06:04.864Z,32.17
2018-12-20T08:08:33.698Z,32.50
2018-12-20T08:11:02.631Z,34.40
2018-12-20T08:13:31.430Z,24.50
2018-12-20T08:16:00.231Z,29.37
2018-12-20T08:18:29.061Z,31.67
2018-12-20T08:20:57.864Z,30.70
2018-12-20T08:23:26.653Z,30.80
2018-12-20T08:25:56.834Z,26.47
2018-12-20T08:28:25.652Z,27.23
2018-12-20T08:30:54.469Z,32.00
2018-12-20T08:33:23.333Z,27.23
2018-12-20T08:35:52.145Z,24.90
2018-12-20T08:38:21.006Z,26.97
2018-12-20T08:40:51.202Z,26.47
2018-12-20T08:43:19.985Z,26.37
2018-12-20T08:45:48.969Z,25.43
2018-12-20T08:48:17.813Z,27.80
2018-12-20T08:50:46.617Z,28.87
2018-12-20T08:53:17.053Z,25.77
2018-12-20T08:55:45.859Z,27.53
2018-12-20T08:58:14.683Z,19.23
2018-12-20T09:00:43.593Z,25.33
2018-12-20T09:03:12.462Z,28.50
2018-12-20T09:05:41.336Z,27.13
2018-12-20T09:08:10.232Z,25.40
2018-12-20T09:10:39.084Z,26.43
2018-12-20T09:13:09.657Z,29.47
2018-12-20T09:15:40.037Z,23.67
2018-12-20T09:18:08.841Z,26.13
2018-12-20T09:20:37.658Z,26.47
2018-12-20T09:23:06.776Z,27.83
2018-12-20T09:25:35.588Z,27.27
2018-12-20T09:28:04.393Z,24.47
2018-12-20T09:30:34.580Z,26.57
2018-12-20T09:33:04.169Z,28.40
2018-12-20T09:35:33.012Z,31.07
2018-12-20T09:38:01.854Z,25.03
2018-12-20T09:40:30.758Z,22.03
2018-12-20T09:42:59.594Z,32.03
2018-12-20T09:45:28.460Z,25.47
2018-12-20T09:48:02.603Z,27.40
2018-12-20T09:50:31.593Z,27.10
2018-12-20T09:53:00.397Z,30.23
2018-12-20T09:55:29.197Z,24.60
2018-12-20T09:57:58.121Z,25.50
2018-12-20T10:00:26.932Z,25.60
2018-12-20T10:02:55.928Z,27.87
2018-12-20T10:05:24.833Z,25.87
2018-12-20T10:07:53.643Z,24.83
2018-12-20T10:10:22.510Z,25.23
2018-12-20T10:12:51.420Z,22.13
2018-12-20T10:15:20.303Z,28.43
2018-12-20T10:17:49.161Z,22.10
2018-12-20T10:20:17.975Z,27.00
2018-12-20T10:22:46.780Z,23.53
2018-12-20T10:25:15.785Z,27.67
2018-12-20T10:27:44.590Z,27.73
2018-12-20T10:30:13.574Z,26.00
2018-12-20T10:32:42.399Z,27.20
2018-12-20T10:35:11.277Z,23.20
2018-12-20T10:37:40.117Z,29.43
2018-12-20T10:40:08.960Z,25.07
2018-12-20T10:42:37.778Z,35.30
2018-12-20T10:45:07.446Z,40.13
2018-12-20T10:47:36.237Z,37.87
2018-12-20T10:50:05.987Z,34.80
2018-12-20T10:52:34.795Z,35.60
2018-12-20T10:55:03.782Z,34.13
2018-12-20T10:57:32.588Z,30.50
2018-12-20T11:00:01.419Z,30.03
2018-12-20T11:02:35.548Z,31.87
2018-12-20T11:05:10.292Z,31.40
2018-12-20T11:07:44.189Z,37.57
2018-12-20T11:10:18.127Z,32.23
2018-12-20T11:12:49.153Z,42.50
2018-12-20T11:15:18.275Z,31.37
2018-12-20T11:17:47.077Z,41.80
2018-12-20T11:20:17.186Z,24.20
2018-12-20T11:22:45.999Z,25.80
2018-12-20T11:25:14.822Z,24.23
2018-12-20T11:27:43.664Z,27.43
2018-12-20T11:30:12.541Z,29.17
2018-12-20T11:32:42.681Z,30.77
2018-12-20T11:35:11.682Z,30.23
2018-12-20T11:37:40.608Z,27.07
2018-12-20T11:40:10.295Z,28.67
2018-12-20T11:42:39.152Z,29.23
2018-12-20T11:45:08.277Z,25.63
2018-12-20T11:47:45.719Z,33.17
2018-12-20T11:50:08.719Z,25.40
2018-12-20T11:52:42.359Z,27.20
2018-12-20T11:55:08.548Z,25.70
2018-12-20T11:57:37.391Z,23.90
2018-12-20T12:00:09.745Z,27.10
2018-12-20T12:02:38.592Z,30.97
2018-12-20T12:05:09.077Z,25.73
2018-12-20T12:07:37.927Z,22.53
2018-12-20T12:10:07.552Z,30.10
2018-12-20T12:12:36.360Z,28.90
2018-12-20T12:15:07.186Z,32.13
2018-12-20T12:17:36.030Z,28.83
2018-12-20T12:20:05.076Z,30.83
2018-12-20T12:22:33.893Z,31.70
2018-12-20T12:25:02.727Z,27.50
2018-12-20T12:27:31.526Z,27.70
2018-12-20T12:30:00.370Z,31.57
2018-12-20T12:32:29.216Z,33.03
2018-12-20T12:34:58.029Z,34.07
2018-12-20T12:37:26.845Z,36.57
2018-12-20T12:39:55.782Z,32.27
2018-12-20T12:42:24.574Z,34.47
2018-12-20T12:44:53.385Z,33.03
2018-12-20T12:47:26.328Z,32.20
2018-12-20T12:49:55.126Z,29.57
2018-12-20T12:52:23.924Z,31.90
2018-12-20T12:54:54.167Z,27.83
2018-12-20T12:57:22.999Z,27.00
2018-12-20T12:59:51.813Z,25.13
2018-12-20T13:02:20.664Z,25.10
2018-12-20T13:04:49.457Z,29.50
2018-12-20T13:07:18.283Z,27.63
2018-12-20T13:09:47.129Z,26.20
2018-12-20T13:12:15.927Z,27.80
2018-12-20T13:14:44.742Z,26.27
2018-12-20T13:17:13.969Z,30.77
2018-12-20T13:19:42.798Z,34.37
2018-12-20T13:22:11.693Z,35.83
2018-12-20T13:24:40.704Z,44.20
2018-12-20T13:27:09.552Z,43.90
2018-12-20T13:29:38.408Z,42.77
2018-12-20T13:32:07.300Z,44.47
2018-12-20T13:34:36.141Z,41.77
2018-12-20T13:37:05.019Z,43.37
2018-12-20T13:39:33.809Z,29.10
2018-12-20T13:42:03.816Z,36.23
2018-12-20T13:44:34.274Z,27.57
2018-12-20T13:47:03.182Z,33.37
2018-12-20T13:49:31.985Z,33.50
2018-12-20T13:52:00.804Z,30.17
2018-12-20T13:54:29.706Z,32.80
2018-12-20T13:56:58.538Z,34.30
2018-12-20T13:59:28.653Z,33.33
2018-12-20T14:01:57.496Z,31.67
2018-12-20T14:04:26.333Z,36.30
2018-12-20T14:06:55.252Z,33.43
2018-12-20T14:09:24.172Z,31.83
2018-12-20T14:11:52.986Z,34.13
2018-12-20T14:14:21.806Z,37.67
2018-12-20T14:16:50.673Z,37.63
2018-12-20T14:19:19.533Z,39.57
2018-12-20T14:21:48.329Z,45.03
2018-12-20T14:24:17.213Z,41.00
2018-12-20T14:26:46.052Z,36.37
2018-12-20T14:29:14.863Z,37.33
2018-12-20T14:31:43.674Z,40.40
2018-12-20T14:34:12.526Z,41.90
2018-12-20T14:36:41.494Z,40.77
2018-12-20T14:39:10.323Z,46.17
2018-12-20T14:41:39.213Z,44.80
2018-12-20T14:44:08.083Z,42.60
2018-12-20T14:46:36.880Z,40.83
2018-12-20T14:49:05.973Z,39.00
2018-12-20T14:51:35.513Z,40.57
2018-12-20T14:54:04.353Z,41.80
2018-12-20T14:56:34.482Z,42.90
2018-12-20T14:59:03.414Z,43.70
2018-12-20T15:01:32.220Z,43.57
2018-12-20T15:04:01.081Z,43.37
2018-12-20T15:06:29.881Z,45.25
2018-12-20T15:08:58.688Z,41.90
2018-12-20T15:11:27.572Z,40.47
2018-12-20T15:13:56.383Z,35.07
2018-12-20T15:16:25.230Z,35.90
2018-12-20T15:18:54.133Z,39.83
2018-12-20T15:21:22.940Z,38.23
2018-12-20T15:23:51.805Z,37.00
2018-12-20T15:26:20.726Z,39.70
2018-12-20T15:28:49.530Z,35.77
2018-12-20T15:31:18.396Z,41.23
2018-12-20T15:33:47.180Z,51.00
2018-12-20T15:36:15.991Z,40.37
2018-12-20T15:38:44.972Z,41.13
2018-12-20T15:41:13.854Z,41.57
2018-12-20T15:43:42.757Z,45.30
2018-12-20T15:46:13.094Z,39.17
2018-12-20T15:48:41.890Z,38.67
2018-12-20T15:51:11.009Z,44.03
2018-12-20T15:53:39.912Z,37.83
2018-12-20T15:56:08.829Z,43.50
2018-12-20T15:58:38.497Z,45.63
2018-12-20T16:01:08.687Z,37.43
2018-12-20T16:03:37.571Z,40.60
2018-12-20T16:06:06.382Z,37.53
2018-12-20T16:08:35.245Z,44.00
2018-12-20T16:11:04.210Z,45.97
2018-12-20T16:13:33.038Z,48.10
2018-12-20T16:16:01.897Z,43.37
2018-12-20T16:18:30.735Z,41.27
2018-12-20T16:20:59.619Z,42.63
2018-12-20T16:23:28.459Z,39.90
2018-12-20T16:25:57.418Z,39.77
2018-12-20T16:28:26.304Z,44.00
2018-12-20T16:30:55.181Z,38.70
2018-12-20T16:33:23.989Z,40.87
2018-12-20T16:35:52.838Z,36.33
2018-12-20T16:38:23.110Z,38.90
2018-12-20T16:40:52.163Z,39.30
2018-12-20T16:43:20.993Z,39.77
2018-12-20T16:45:50.047Z,29.80
2018-12-20T16:48:24.867Z,38.30
2018-12-20T16:50:55.797Z,38.20
2018-12-20T16:53:24.826Z,39.40
2018-12-20T16:55:53.663Z,35.00
2018-12-20T16:58:22.526Z,33.37
2018-12-20T17:00:51.405Z,38.97
2018-12-20T17:03:20.405Z,37.48
2018-12-20T17:05:49.215Z,38.60
2018-12-20T17:08:20.041Z,36.93
2018-12-20T17:10:48.844Z,33.07
2018-12-20T17:13:17.698Z,38.00
2018-12-20T17:15:46.953Z,36.60
2018-12-20T17:18:15.802Z,36.53
2018-12-20T17:20:46.025Z,39.17
2018-12-20T17:23:14.892Z,36.40
2018-12-20T17:25:43.724Z,35.30
2018-12-20T17:28:13.809Z,38.60
2018-12-20T17:30:42.608Z,38.10
2018-12-20T17:33:11.405Z,36.93
2018-12-20T17:35:40.365Z,35.93
2018-12-20T17:38:09.164Z,34.47
2018-12-20T17:40:38.137Z,43.13
2018-12-20T17:43:07.027Z,43.60
2018-12-20T17:45:36.912Z,44.20
2018-12-20T17:48:05.992Z,45.50
2018-12-20T17:50:34.829Z,47.27
2018-12-20T17:53:03.661Z,53.43
2018-12-20T17:55:32.503Z,54.83
2018-12-20T17:58:01.394Z,60.87
2018-12-20T18:00:31.473Z,65.03
2018-12-20T18:03:00.289Z,71.97
2018-12-20T18:05:29.222Z,56.67
2018-12-20T18:07:58.021Z,61.60
2018-12-20T18:10:26.844Z,58.27
2018-12-20T18:12:55.735Z,63.23
2018-12-20T18:15:24.576Z,67.00
2018-12-20T18:17:53.437Z,60.27
2018-12-20T18:20:22.270Z,57.63
2018-12-20T18:22:51.109Z,55.70
2018-12-20T18:25:19.970Z,59.00
2018-12-20T18:27:48.872Z,53.10
2018-12-20T18:30:17.698Z,56.17
2018-12-20T18:32:46.517Z,58.43
2018-12-20T18:35:15.392Z,50.03
2018-12-20T18:37:44.418Z,52.20
2018-12-20T18:40:13.247Z,50.43
2018-12-20T18:42:42.090Z,50.43
2018-12-20T18:45:12.622Z,49.53
2018-12-20T18:47:41.440Z,47.07
2018-12-20T18:50:11.321Z,52.97
2018-12-20T18:52:40.207Z,58.23
2018-12-20T18:55:09.033Z,50.13
2018-12-20T18:57:37.870Z,50.37
2018-12-20T19:00:09.025Z,53.87
2018-12-20T19:02:37.966Z,58.27
2018-12-20T19:05:08.193Z,59.97
2018-12-20T19:07:37.057Z,62.50
2018-12-20T19:10:07.359Z,67.60
2018-12-20T19:12:36.187Z,63.40
2018-12-20T19:15:06.089Z,69.57
2018-12-20T19:17:34.980Z,65.37
2018-12-20T19:20:03.974Z,72.57
2018-12-20T19:22:32.917Z,90.73
2018-12-20T19:25:01.836Z,61.63
2018-12-20T19:27:30.725Z,59.70
2018-12-20T19:29:59.672Z,54.67
2018-12-20T19:32:28.473Z,56.17
2018-12-20T19:34:57.295Z,55.10
2018-12-20T19:37:26.167Z,52.23
2018-12-20T19:40:00.414Z,57.30
2018-12-20T19:42:29.242Z,56.57
2018-12-20T19:44:58.183Z,59.47
2018-12-20T19:47:27.092Z,59.67
2018-12-20T19:50:04.588Z,51.93
2018-12-20T19:52:27.365Z,48.90
2018-12-20T19:54:57.553Z,60.20
2018-12-20T19:57:26.371Z,51.13
2018-12-20T19:59:55.268Z,48.97
2018-12-20T20:02:24.105Z,50.83
2018-12-20T20:04:52.918Z,47.23
2018-12-20T20:07:23.884Z,51.07
2018-12-20T20:09:52.590Z,47.90
2018-12-20T20:12:21.447Z,46.97
2018-12-20T20:14:50.327Z,45.17
2018-12-20T20:17:19.192Z,42.93
2018-12-20T20:19:48.006Z,43.07
2018-12-20T20:22:16.810Z,39.07
2018-12-20T20:24:45.653Z,40.13
2018-12-20T20:27:14.600Z,36.30
2018-12-20T20:29:43.489Z,43.13
2018-12-20T20:32:12.396Z,39.17
2018-12-20T20:34:41.208Z,39.33
2018-12-20T20:37:10.093Z,41.33
2018-12-20T20:39:38.900Z,42.23
2018-12-20T20:42:07.785Z,42.87
2018-12-20T20:44:36.590Z,41.17
2018-12-20T20:47:05.495Z,40.40
2018-12-20T20:49:34.289Z,48.73
2018-12-20T20:52:03.564Z,45.33
2018-12-20T20:54:32.511Z,43.77
2018-12-20T20:57:01.311Z,40.23
2018-12-20T20:59:30.125Z,49.47
2018-12-20T21:02:00.338Z,48.07
2018-12-20T21:04:29.264Z,46.37
2018-12-20T21:06:58.154Z,42.67
2018-12-20T21:09:28.199Z,45.97
2018-12-20T21:11:57.080Z,40.37
2018-12-20T21:14:25.892Z,47.30
2018-12-20T21:16:54.737Z,38.97
2018-12-20T21:19:23.561Z,48.20
2018-12-20T21:21:52.388Z,43.37
2018-12-20T21:24:21.293Z,39.83
2018-12-20T21:26:50.375Z,41.93
2018-12-20T21:29:19.217Z,36.73
2018-12-20T21:31:48.182Z,36.47
2018-12-20T21:34:19.039Z,38.43
2018-12-20T21:36:47.857Z,45.00
2018-12-20T21:39:16.711Z,43.40
2018-12-20T21:41:45.515Z,48.97
2018-12-20T21:44:14.843Z,48.37
2018-12-20T21:46:43.730Z,50.13
2018-12-20T21:49:14.006Z,48.77
2018-12-20T21:51:42.815Z,47.23
2018-12-20T21:54:11.657Z,43.93
2018-12-20T21:56:40.512Z,49.97
2018-12-20T21:59:09.382Z,53.40
2018-12-20T22:01:38.242Z,47.10
2018-12-20T22:04:07.093Z,44.77
2018-12-20T22:06:35.901Z,52.40
2018-12-20T22:09:06.994Z,45.43
2018-12-20T22:11:37.908Z,52.43
2018-12-20T22:14:06.732Z,49.50
2018-12-20T22:16:35.581Z,51.67
2018-12-20T22:19:04.395Z,45.40
2018-12-20T22:21:33.237Z,49.63
2018-12-20T22:24:02.067Z,51.93
2018-12-20T22:26:30.925Z,50.57
2018-12-20T22:29:00.473Z,47.07
2018-12-20T22:31:29.303Z,54.47
2018-12-20T22:33:58.133Z,51.10
2018-12-20T22:36:27.169Z,50.23
2018-12-20T22:38:56.048Z,62.17
2018-12-20T22:41:24.883Z,55.27
2018-12-20T22:43:53.914Z,56.47
2018-12-20T22:46:22.745Z,49.03
2018-12-20T22:48:51.557Z,54.67
2018-12-20T22:51:21.096Z,48.47
2018-12-20T22:53:50.039Z,49.00
2018-12-20T22:56:18.850Z,50.80
2018-12-20T22:58:47.712Z,51.13
2018-12-20T23:01:16.694Z,57.53
2018-12-20T23:03:45.660Z,53.47
2018-12-20T23:06:14.567Z,57.83
2018-12-20T23:08:43.460Z,53.33
2018-12-20T23:11:12.277Z,51.13
2018-12-20T23:13:41.140Z,52.07
2018-12-20T23:16:09.973Z,60.23
2018-12-20T23:18:38.804Z,59.93
2018-12-20T23:21:08.020Z,61.87
2018-12-20T23:23:36.850Z,59.43
2018-12-20T23:26:05.738Z,60.53
2018-12-20T23:28:34.644Z,59.17
2018-12-20T23:31:03.503Z,56.93
2018-12-20T23:33:32.317Z,58.77
2018-12-20T23:36:01.187Z,59.20
2018-12-20T23:38:30.106Z,58.13
2018-12-20T23:40:58.928Z,59.57
2018-12-20T23:43:27.851Z,61.00
2018-12-20T23:45:56.779Z,62.43
2018-12-20T23:48:25.765Z,60.60
2018-12-20T23:50:54.744Z,55.23
2018-12-20T23:53:23.772Z,58.50
2018-12-20T23:55:52.660Z,56.53
2018-12-20T23:58:21.501Z,57.97
